sensor_id;sensor_type;location;lat;lon;timestamp;temperature;humidity
13561;DHT22;6852;51.686;5.314;2023-02-02T00:00:27;8.80;99.90
13561;DHT22;6852;51.686;5.314;2023-02-02T00:02:53;8.80;99.90
13561;DHT22;6852;51.686;5.314;2023-02-02T00:05:20;8.80;99.90
13561;DHT22;6852;51.686;5.314;2023-02-02T00:07:48;8.80;99.90
13561;DHT22;6852;51.686;5.314;2023-02-02T00:10:14;8.80;99.90
13561;DHT22;6852;51.686;5.314;2023-02-02T00:12:41;8.70;99.90
13561;DHT22;6852;51.686;5.314;2023-02-02T00:15:09;8.70;99.90
13561;DHT22;6852;51.686;5.314;2023-02-02T00:17:36;8.70;99.90
13561;DHT22;6852;51.686;5.314;2023-02-02T00:20:03;8.70;99.90
13561;DHT22;6852;51.686;5.314;2023-02-02T00:22:30;8.70;99.90
13561;DHT22;6852;51.686;5.314;2023-02-02T00:24:56;8.70;99.90
13561;DHT22;6852;51.686;5.314;2023-02-02T00:27:23;8.70;99.90
13561;DHT22;6852;51.686;5.314;2023-02-02T00:29:50;8.80;99.90
13561;DHT22;6852;51.686;5.314;2023-02-02T00:32:19;8.70;99.90
13561;DHT22;6852;51.686;5.314;2023-02-02T00:34:46;8.70;99.90
13561;DHT22;6852;51.686;5.314;2023-02-02T00:37:13;8.80;99.90
13561;DHT22;6852;51.686;5.314;2023-02-02T00:39:39;8.70;99.90
13561;DHT22;6852;51.686;5.314;2023-02-02T00:42:09;8.80;99.90
13561;DHT22;6852;51.686;5.314;2023-02-02T00:44:36;8.80;99.90
13561;DHT22;6852;51.686;5.314;2023-02-02T00:47:22;8.80;99.90
13561;DHT22;6852;51.686;5.314;2023-02-02T00:49:48;8.80;99.90
13561;DHT22;6852;51.686;5.314;2023-02-02T00:52:15;8.80;99.90
13561;DHT22;6852;51.686;5.314;2023-02-02T00:54:42;8.70;99.90
13561;DHT22;6852;51.686;5.314;2023-02-02T00:57:12;8.70;99.90
13561;DHT22;6852;51.686;5.314;2023-02-02T00:59:40;8.70;99.90
13561;DHT22;6852;51.686;5.314;2023-02-02T01:02:09;8.70;99.90
13561;DHT22;6852;51.686;5.314;2023-02-02T01:04:36;8.70;99.90
13561;DHT22;6852;51.686;5.314;2023-02-02T01:07:04;8.70;99.90
13561;DHT22;6852;51.686;5.314;2023-02-02T01:09:31;8.70;99.90
13561;DHT22;6852;51.686;5.314;2023-02-02T01:11:58;8.70;99.90
13561;DHT22;6852;51.686;5.314;2023-02-02T01:14:24;8.70;99.90
13561;DHT22;6852;51.686;5.314;2023-02-02T01:16:51;8.70;99.90
13561;DHT22;6852;51.686;5.314;2023-02-02T01:19:18;8.70;99.90
13561;DHT22;6852;51.686;5.314;2023-02-02T01:21:45;8.70;99.90
13561;DHT22;6852;51.686;5.314;2023-02-02T01:24:12;8.70;99.90
13561;DHT22;6852;51.686;5.314;2023-02-02T01:26:38;8.70;99.90
13561;DHT22;6852;51.686;5.314;2023-02-02T01:29:05;8.70;99.90
13561;DHT22;6852;51.686;5.314;2023-02-02T01:31:32;8.70;99.90
13561;DHT22;6852;51.686;5.314;2023-02-02T01:33:59;8.70;99.90
13561;DHT22;6852;51.686;5.314;2023-02-02T01:36:26;8.70;99.90
13561;DHT22;6852;51.686;5.314;2023-02-02T01:38:53;8.60;99.90
13561;DHT22;6852;51.686;5.314;2023-02-02T01:41:23;8.60;99.90
13561;DHT22;6852;51.686;5.314;2023-02-02T01:44:02;8.70;99.90
13561;DHT22;6852;51.686;5.314;2023-02-02T01:46:34;8.60;99.90
13561;DHT22;6852;51.686;5.314;2023-02-02T01:51:40;8.60;99.90
13561;DHT22;6852;51.686;5.314;2023-02-02T01:54:11;8.60;99.90
13561;DHT22;6852;51.686;5.314;2023-02-02T01:56:59;8.60;99.90
13561;DHT22;6852;51.686;5.314;2023-02-02T01:59:27;8.60;99.90
13561;DHT22;6852;51.686;5.314;2023-02-02T02:01:56;8.60;99.90
13561;DHT22;6852;51.686;5.314;2023-02-02T02:04:24;8.50;99.90
13561;DHT22;6852;51.686;5.314;2023-02-02T02:06:52;8.50;99.90
13561;DHT22;6852;51.686;5.314;2023-02-02T02:09:19;8.60;99.90
13561;DHT22;6852;51.686;5.314;2023-02-02T02:11:47;8.60;99.90
13561;DHT22;6852;51.686;5.314;2023-02-02T02:14:14;8.60;99.90
13561;DHT22;6852;51.686;5.314;2023-02-02T02:31:59;8.50;99.90
13561;DHT22;6852;51.686;5.314;2023-02-02T02:35:01;8.50;99.90
13561;DHT22;6852;51.686;5.314;2023-02-02T02:43:06;8.40;99.90
13561;DHT22;6852;51.686;5.314;2023-02-02T02:45:36;8.40;99.90
13561;DHT22;6852;51.686;5.314;2023-02-02T02:48:04;8.40;99.90
13561;DHT22;6852;51.686;5.314;2023-02-02T02:50:31;8.50;99.90
13561;DHT22;6852;51.686;5.314;2023-02-02T02:53:21;8.60;99.90
13561;DHT22;6852;51.686;5.314;2023-02-02T02:56:00;8.50;99.90
13561;DHT22;6852;51.686;5.314;2023-02-02T02:58:53;8.50;99.90
13561;DHT22;6852;51.686;5.314;2023-02-02T03:01:56;8.50;99.90
13561;DHT22;6852;51.686;5.314;2023-02-02T03:04:45;8.50;99.90
13561;DHT22;6852;51.686;5.314;2023-02-02T03:07:37;8.40;99.90
13561;DHT22;6852;51.686;5.314;2023-02-02T03:10:10;8.50;99.90
13561;DHT22;6852;51.686;5.314;2023-02-02T03:12:49;8.50;99.90
13561;DHT22;6852;51.686;5.314;2023-02-02T03:15:17;8.50;99.90
13561;DHT22;6852;51.686;5.314;2023-02-02T03:17:49;8.50;99.90
13561;DHT22;6852;51.686;5.314;2023-02-02T03:20:16;8.50;99.90
13561;DHT22;6852;51.686;5.314;2023-02-02T03:22:43;8.60;99.90
13561;DHT22;6852;51.686;5.314;2023-02-02T03:25:10;8.50;99.90
13561;DHT22;6852;51.686;5.314;2023-02-02T03:27:37;8.50;99.90
13561;DHT22;6852;51.686;5.314;2023-02-02T03:30:07;8.50;99.90
13561;DHT22;6852;51.686;5.314;2023-02-02T03:32:35;8.50;99.90
13561;DHT22;6852;51.686;5.314;2023-02-02T03:35:02;8.50;99.90
13561;DHT22;6852;51.686;5.314;2023-02-02T03:37:29;8.50;99.90
13561;DHT22;6852;51.686;5.314;2023-02-02T03:39:56;8.50;99.90
13561;DHT22;6852;51.686;5.314;2023-02-02T03:42:23;8.50;99.90
13561;DHT22;6852;51.686;5.314;2023-02-02T03:44:49;8.60;99.90
13561;DHT22;6852;51.686;5.314;2023-02-02T03:47:16;8.50;99.90
13561;DHT22;6852;51.686;5.314;2023-02-02T03:49:43;8.60;99.90
13561;DHT22;6852;51.686;5.314;2023-02-02T03:52:10;8.50;99.90
13561;DHT22;6852;51.686;5.314;2023-02-02T03:54:36;8.50;99.90
13561;DHT22;6852;51.686;5.314;2023-02-02T03:57:03;8.50;99.90
13561;DHT22;6852;51.686;5.314;2023-02-02T03:59:30;8.60;99.90
13561;DHT22;6852;51.686;5.314;2023-02-02T04:01:56;8.60;99.90
13561;DHT22;6852;51.686;5.314;2023-02-02T04:04:23;8.60;99.90
13561;DHT22;6852;51.686;5.314;2023-02-02T04:06:50;8.60;99.90
13561;DHT22;6852;51.686;5.314;2023-02-02T04:09:17;8.60;99.90
13561;DHT22;6852;51.686;5.314;2023-02-02T04:11:44;8.60;99.90
13561;DHT22;6852;51.686;5.314;2023-02-02T04:14:10;8.60;99.90
13561;DHT22;6852;51.686;5.314;2023-02-02T04:16:37;8.60;99.90
13561;DHT22;6852;51.686;5.314;2023-02-02T04:19:04;8.70;99.90
13561;DHT22;6852;51.686;5.314;2023-02-02T04:21:31;8.60;99.90
13561;DHT22;6852;51.686;5.314;2023-02-02T04:23:58;8.70;99.90
13561;DHT22;6852;51.686;5.314;2023-02-02T04:26:26;8.60;99.90
13561;DHT22;6852;51.686;5.314;2023-02-02T04:28:53;8.60;99.90
13561;DHT22;6852;51.686;5.314;2023-02-02T04:31:19;8.60;99.90
13561;DHT22;6852;51.686;5.314;2023-02-02T04:33:46;8.70;99.90
13561;DHT22;6852;51.686;5.314;2023-02-02T04:36:13;8.60;99.90
13561;DHT22;6852;51.686;5.314;2023-02-02T04:38:40;8.60;99.90
13561;DHT22;6852;51.686;5.314;2023-02-02T04:41:08;8.60;99.90
13561;DHT22;6852;51.686;5.314;2023-02-02T04:43:37;8.60;99.90
13561;DHT22;6852;51.686;5.314;2023-02-02T04:46:04;8.60;99.90
13561;DHT22;6852;51.686;5.314;2023-02-02T04:48:31;8.60;99.90
13561;DHT22;6852;51.686;5.314;2023-02-02T04:51:05;8.60;99.90
13561;DHT22;6852;51.686;5.314;2023-02-02T04:53:32;8.60;99.90
13561;DHT22;6852;51.686;5.314;2023-02-02T04:56:08;8.60;99.90
13561;DHT22;6852;51.686;5.314;2023-02-02T04:58:35;8.60;99.90
13561;DHT22;6852;51.686;5.314;2023-02-02T05:01:11;8.60;99.90
13561;DHT22;6852;51.686;5.314;2023-02-02T05:03:38;8.50;99.90
13561;DHT22;6852;51.686;5.314;2023-02-02T05:06:05;8.50;99.90
13561;DHT22;6852;51.686;5.314;2023-02-02T05:08:32;8.60;99.90
13561;DHT22;6852;51.686;5.314;2023-02-02T05:10:59;8.60;99.90
13561;DHT22;6852;51.686;5.314;2023-02-02T05:13:26;8.60;99.90
13561;DHT22;6852;51.686;5.314;2023-02-02T05:15:52;8.50;99.90
13561;DHT22;6852;51.686;5.314;2023-02-02T05:18:20;8.50;99.90
13561;DHT22;6852;51.686;5.314;2023-02-02T05:20:47;8.60;99.90
13561;DHT22;6852;51.686;5.314;2023-02-02T05:23:14;8.60;99.90
13561;DHT22;6852;51.686;5.314;2023-02-02T05:25:41;8.60;99.90
13561;DHT22;6852;51.686;5.314;2023-02-02T05:28:07;8.60;99.90
13561;DHT22;6852;51.686;5.314;2023-02-02T05:30:34;8.60;99.90
13561;DHT22;6852;51.686;5.314;2023-02-02T05:33:03;8.60;99.90
13561;DHT22;6852;51.686;5.314;2023-02-02T05:35:30;8.60;99.90
13561;DHT22;6852;51.686;5.314;2023-02-02T05:37:57;8.60;99.90
13561;DHT22;6852;51.686;5.314;2023-02-02T05:40:24;8.60;99.90
13561;DHT22;6852;51.686;5.314;2023-02-02T05:42:51;8.60;99.90
13561;DHT22;6852;51.686;5.314;2023-02-02T05:45:18;8.70;99.90
13561;DHT22;6852;51.686;5.314;2023-02-02T05:47:45;8.70;99.90
13561;DHT22;6852;51.686;5.314;2023-02-02T05:50:11;8.60;99.90
13561;DHT22;6852;51.686;5.314;2023-02-02T05:52:39;8.60;99.90
13561;DHT22;6852;51.686;5.314;2023-02-02T05:55:06;8.60;99.90
13561;DHT22;6852;51.686;5.314;2023-02-02T05:57:33;8.70;99.90
13561;DHT22;6852;51.686;5.314;2023-02-02T06:00:00;8.70;99.90
13561;DHT22;6852;51.686;5.314;2023-02-02T06:02:27;8.60;99.90
13561;DHT22;6852;51.686;5.314;2023-02-02T06:04:54;8.60;99.90
13561;DHT22;6852;51.686;5.314;2023-02-02T06:07:21;8.60;99.90
13561;DHT22;6852;51.686;5.314;2023-02-02T06:09:47;8.60;99.90
13561;DHT22;6852;51.686;5.314;2023-02-02T06:12:14;8.60;99.90
13561;DHT22;6852;51.686;5.314;2023-02-02T06:14:41;8.50;99.90
13561;DHT22;6852;51.686;5.314;2023-02-02T06:17:08;8.60;99.90
13561;DHT22;6852;51.686;5.314;2023-02-02T06:19:34;8.60;99.90
13561;DHT22;6852;51.686;5.314;2023-02-02T06:22:01;8.60;99.90
13561;DHT22;6852;51.686;5.314;2023-02-02T06:24:28;8.60;99.90
13561;DHT22;6852;51.686;5.314;2023-02-02T06:26:55;8.60;99.90
13561;DHT22;6852;51.686;5.314;2023-02-02T06:29:25;8.50;99.90
13561;DHT22;6852;51.686;5.314;2023-02-02T06:31:51;8.50;99.90
13561;DHT22;6852;51.686;5.314;2023-02-02T06:34:19;8.50;99.90
13561;DHT22;6852;51.686;5.314;2023-02-02T06:36:45;8.50;99.90
13561;DHT22;6852;51.686;5.314;2023-02-02T06:39:12;8.50;99.90
13561;DHT22;6852;51.686;5.314;2023-02-02T06:41:39;8.50;99.90
13561;DHT22;6852;51.686;5.314;2023-02-02T06:44:06;8.50;99.90
13561;DHT22;6852;51.686;5.314;2023-02-02T06:46:33;8.60;99.90
13561;DHT22;6852;51.686;5.314;2023-02-02T06:49:00;8.50;99.90
13561;DHT22;6852;51.686;5.314;2023-02-02T06:51:26;8.60;99.90
13561;DHT22;6852;51.686;5.314;2023-02-02T06:53:53;8.50;99.90
13561;DHT22;6852;51.686;5.314;2023-02-02T06:56:20;8.60;99.90
13561;DHT22;6852;51.686;5.314;2023-02-02T06:58:48;8.60;99.90
13561;DHT22;6852;51.686;5.314;2023-02-02T07:01:15;8.50;99.90
13561;DHT22;6852;51.686;5.314;2023-02-02T07:03:42;8.60;99.90
13561;DHT22;6852;51.686;5.314;2023-02-02T07:06:11;8.60;99.90
13561;DHT22;6852;51.686;5.314;2023-02-02T07:08:37;8.60;99.90
13561;DHT22;6852;51.686;5.314;2023-02-02T07:11:04;8.50;99.90
13561;DHT22;6852;51.686;5.314;2023-02-02T07:13:46;8.50;99.90
13561;DHT22;6852;51.686;5.314;2023-02-02T07:16:14;8.50;99.90
13561;DHT22;6852;51.686;5.314;2023-02-02T07:18:42;8.50;99.90
13561;DHT22;6852;51.686;5.314;2023-02-02T07:21:22;8.50;99.90
13561;DHT22;6852;51.686;5.314;2023-02-02T07:23:49;8.40;99.90
13561;DHT22;6852;51.686;5.314;2023-02-02T07:26:17;8.50;99.90
13561;DHT22;6852;51.686;5.314;2023-02-02T07:28:45;8.40;99.90
13561;DHT22;6852;51.686;5.314;2023-02-02T07:31:15;8.50;99.90
13561;DHT22;6852;51.686;5.314;2023-02-02T07:33:43;8.60;99.90
13561;DHT22;6852;51.686;5.314;2023-02-02T07:36:12;8.50;99.90
13561;DHT22;6852;51.686;5.314;2023-02-02T07:38:42;8.40;99.90
13561;DHT22;6852;51.686;5.314;2023-02-02T07:41:10;8.50;99.90
13561;DHT22;6852;51.686;5.314;2023-02-02T07:43:37;8.50;99.90
13561;DHT22;6852;51.686;5.314;2023-02-02T07:46:06;8.30;99.90
13561;DHT22;6852;51.686;5.314;2023-02-02T07:48:36;8.40;99.90
13561;DHT22;6852;51.686;5.314;2023-02-02T07:51:05;8.40;99.90
13561;DHT22;6852;51.686;5.314;2023-02-02T07:53:33;8.40;99.90
13561;DHT22;6852;51.686;5.314;2023-02-02T07:56:14;8.40;99.90
13561;DHT22;6852;51.686;5.314;2023-02-02T07:58:42;8.30;99.90
13561;DHT22;6852;51.686;5.314;2023-02-02T08:01:11;8.40;99.90
13561;DHT22;6852;51.686;5.314;2023-02-02T08:03:39;8.40;99.90
13561;DHT22;6852;51.686;5.314;2023-02-02T08:06:13;8.50;99.90
13561;DHT22;6852;51.686;5.314;2023-02-02T08:08:40;8.50;99.90
13561;DHT22;6852;51.686;5.314;2023-02-02T08:11:08;8.40;99.90
13561;DHT22;6852;51.686;5.314;2023-02-02T08:13:35;8.40;99.90
13561;DHT22;6852;51.686;5.314;2023-02-02T08:16:03;8.50;99.90
13561;DHT22;6852;51.686;5.314;2023-02-02T08:18:30;8.50;99.90
13561;DHT22;6852;51.686;5.314;2023-02-02T08:20:58;8.50;99.90
13561;DHT22;6852;51.686;5.314;2023-02-02T08:23:26;8.50;99.90
13561;DHT22;6852;51.686;5.314;2023-02-02T08:25:54;8.60;99.90
13561;DHT22;6852;51.686;5.314;2023-02-02T08:28:30;8.60;99.90
13561;DHT22;6852;51.686;5.314;2023-02-02T08:31:03;8.60;99.90
13561;DHT22;6852;51.686;5.314;2023-02-02T08:33:30;8.70;99.90
13561;DHT22;6852;51.686;5.314;2023-02-02T08:35:57;8.70;99.90
13561;DHT22;6852;51.686;5.314;2023-02-02T08:38:24;8.60;99.90
13561;DHT22;6852;51.686;5.314;2023-02-02T08:40:50;8.70;99.90
13561;DHT22;6852;51.686;5.314;2023-02-02T08:43:18;8.70;99.90
13561;DHT22;6852;51.686;5.314;2023-02-02T08:45:45;8.60;99.90
13561;DHT22;6852;51.686;5.314;2023-02-02T08:48:30;8.70;99.90
13561;DHT22;6852;51.686;5.314;2023-02-02T08:50:58;8.70;99.90
13561;DHT22;6852;51.686;5.314;2023-02-02T08:53:26;8.70;99.90
13561;DHT22;6852;51.686;5.314;2023-02-02T08:56:04;8.70;99.90
13561;DHT22;6852;51.686;5.314;2023-02-02T08:58:32;8.70;99.90
13561;DHT22;6852;51.686;5.314;2023-02-02T09:03:31;8.80;99.90
13561;DHT22;6852;51.686;5.314;2023-02-02T09:06:06;8.80;99.90
13561;DHT22;6852;51.686;5.314;2023-02-02T09:08:34;8.80;99.90
13561;DHT22;6852;51.686;5.314;2023-02-02T09:11:05;8.80;99.90
13561;DHT22;6852;51.686;5.314;2023-02-02T09:13:32;8.80;99.90
13561;DHT22;6852;51.686;5.314;2023-02-02T09:16:01;8.70;99.90
13561;DHT22;6852;51.686;5.314;2023-02-02T09:18:29;8.80;99.90
13561;DHT22;6852;51.686;5.314;2023-02-02T09:21:01;8.80;99.90
13561;DHT22;6852;51.686;5.314;2023-02-02T09:23:30;8.80;99.90
13561;DHT22;6852;51.686;5.314;2023-02-02T09:26:02;8.90;99.90
13561;DHT22;6852;51.686;5.314;2023-02-02T09:28:33;9.00;99.90
13561;DHT22;6852;51.686;5.314;2023-02-02T09:31:01;9.10;99.90
13561;DHT22;6852;51.686;5.314;2023-02-02T09:33:28;9.10;99.90
13561;DHT22;6852;51.686;5.314;2023-02-02T09:35:54;9.20;99.90
13561;DHT22;6852;51.686;5.314;2023-02-02T09:38:21;9.20;99.90
13561;DHT22;6852;51.686;5.314;2023-02-02T09:40:48;9.30;99.90
13561;DHT22;6852;51.686;5.314;2023-02-02T09:51:12;9.20;99.90
13561;DHT22;6852;51.686;5.314;2023-02-02T09:53:54;9.30;99.90
13561;DHT22;6852;51.686;5.314;2023-02-02T09:56:49;9.30;99.90
13561;DHT22;6852;51.686;5.314;2023-02-02T09:59:23;9.20;99.90
13561;DHT22;6852;51.686;5.314;2023-02-02T10:01:57;9.10;99.90
13561;DHT22;6852;51.686;5.314;2023-02-02T10:04:38;9.10;99.90
13561;DHT22;6852;51.686;5.314;2023-02-02T10:07:11;9.20;99.90
13561;DHT22;6852;51.686;5.314;2023-02-02T10:09:56;9.20;99.90
13561;DHT22;6852;51.686;5.314;2023-02-02T10:12:39;9.20;99.90
13561;DHT22;6852;51.686;5.314;2023-02-02T10:18:01;9.30;99.90
13561;DHT22;6852;51.686;5.314;2023-02-02T10:20:47;9.30;99.90
13561;DHT22;6852;51.686;5.314;2023-02-02T10:23:35;9.30;99.90
13561;DHT22;6852;51.686;5.314;2023-02-02T10:26:22;9.40;99.90
13561;DHT22;6852;51.686;5.314;2023-02-02T10:34:43;9.40;99.90
13561;DHT22;6852;51.686;5.314;2023-02-02T10:51:40;9.50;99.90
13561;DHT22;6852;51.686;5.314;2023-02-02T10:54:28;9.60;1.00
13561;DHT22;6852;51.686;5.314;2023-02-02T10:57:08;9.50;1.00
13561;DHT22;6852;51.686;5.314;2023-02-02T10:59:50;9.40;1.00
13561;DHT22;6852;51.686;5.314;2023-02-02T11:02:18;9.50;45.90
13561;DHT22;6852;51.686;5.314;2023-02-02T11:04:47;9.50;53.00
13561;DHT22;6852;51.686;5.314;2023-02-02T11:07:32;9.50;99.90
13561;DHT22;6852;51.686;5.314;2023-02-02T11:09:59;9.50;99.90
13561;DHT22;6852;51.686;5.314;2023-02-02T11:12:34;9.50;99.90
13561;DHT22;6852;51.686;5.314;2023-02-02T11:15:08;9.50;99.90
13561;DHT22;6852;51.686;5.314;2023-02-02T11:17:47;9.40;99.90
13561;DHT22;6852;51.686;5.314;2023-02-02T11:20:23;9.50;99.90
13561;DHT22;6852;51.686;5.314;2023-02-02T11:23:03;9.60;99.90
13561;DHT22;6852;51.686;5.314;2023-02-02T11:25:36;9.50;99.90
13561;DHT22;6852;51.686;5.314;2023-02-02T11:28:20;9.50;99.90
13561;DHT22;6852;51.686;5.314;2023-02-02T11:30:51;9.60;99.90
13561;DHT22;6852;51.686;5.314;2023-02-02T11:33:20;9.60;99.90
13561;DHT22;6852;51.686;5.314;2023-02-02T11:35:57;9.70;99.90
13561;DHT22;6852;51.686;5.314;2023-02-02T11:38:25;9.60;99.90
13561;DHT22;6852;51.686;5.314;2023-02-02T11:41:02;9.60;99.90
13561;DHT22;6852;51.686;5.314;2023-02-02T11:43:39;9.70;99.90
13561;DHT22;6852;51.686;5.314;2023-02-02T11:46:21;9.60;99.90
13561;DHT22;6852;51.686;5.314;2023-02-02T11:49:05;9.60;99.90
13561;DHT22;6852;51.686;5.314;2023-02-02T11:51:34;9.60;99.90
13561;DHT22;6852;51.686;5.314;2023-02-02T11:54:05;9.60;99.90
13561;DHT22;6852;51.686;5.314;2023-02-02T11:56:34;9.60;99.90
13561;DHT22;6852;51.686;5.314;2023-02-02T11:59:02;9.60;99.90
13561;DHT22;6852;51.686;5.314;2023-02-02T12:01:33;9.50;99.90
13561;DHT22;6852;51.686;5.314;2023-02-02T12:04:08;9.50;99.90
13561;DHT22;6852;51.686;5.314;2023-02-02T12:06:46;9.60;99.90
13561;DHT22;6852;51.686;5.314;2023-02-02T12:09:16;9.60;99.90
13561;DHT22;6852;51.686;5.314;2023-02-02T12:12:10;9.40;99.90
13561;DHT22;6852;51.686;5.314;2023-02-02T12:24:32;9.60;99.90
13561;DHT22;6852;51.686;5.314;2023-02-02T12:29:59;9.50;99.90
13561;DHT22;6852;51.686;5.314;2023-02-02T13:00:02;9.60;99.90
13561;DHT22;6852;51.686;5.314;2023-02-02T13:02:43;9.60;99.90
13561;DHT22;6852;51.686;5.314;2023-02-02T13:05:38;9.50;99.90
13561;DHT22;6852;51.686;5.314;2023-02-02T13:08:19;9.30;99.90
13561;DHT22;6852;51.686;5.314;2023-02-02T13:10:52;9.30;99.90
13561;DHT22;6852;51.686;5.314;2023-02-02T13:13:28;9.20;99.90
13561;DHT22;6852;51.686;5.314;2023-02-02T13:16:04;9.20;99.90
13561;DHT22;6852;51.686;5.314;2023-02-02T13:18:45;9.30;99.90
13561;DHT22;6852;51.686;5.314;2023-02-02T13:21:16;9.30;99.90
13561;DHT22;6852;51.686;5.314;2023-02-02T13:23:50;9.20;99.90
13561;DHT22;6852;51.686;5.314;2023-02-02T13:26:23;9.10;99.90
13561;DHT22;6852;51.686;5.314;2023-02-02T13:29:05;9.10;99.90
13561;DHT22;6852;51.686;5.314;2023-02-02T13:34:43;9.10;99.90
13561;DHT22;6852;51.686;5.314;2023-02-02T13:37:24;8.90;99.90
13561;DHT22;6852;51.686;5.314;2023-02-02T13:39:57;9.00;99.90
13561;DHT22;6852;51.686;5.314;2023-02-02T13:47:57;9.00;99.90
13561;DHT22;6852;51.686;5.314;2023-02-02T13:50:28;9.10;99.90
13561;DHT22;6852;51.686;5.314;2023-02-02T13:53:31;9.00;99.90
13561;DHT22;6852;51.686;5.314;2023-02-02T13:58:57;9.00;99.90
13561;DHT22;6852;51.686;5.314;2023-02-02T14:01:30;9.00;99.90
13561;DHT22;6852;51.686;5.314;2023-02-02T14:03:59;9.00;99.90
13561;DHT22;6852;51.686;5.314;2023-02-02T14:06:27;9.00;99.90
13561;DHT22;6852;51.686;5.314;2023-02-02T14:09:01;9.00;99.90
13561;DHT22;6852;51.686;5.314;2023-02-02T14:11:37;9.00;99.90
13561;DHT22;6852;51.686;5.314;2023-02-02T14:14:15;9.00;99.90
13561;DHT22;6852;51.686;5.314;2023-02-02T14:17:00;9.10;99.90
13561;DHT22;6852;51.686;5.314;2023-02-02T14:27:03;8.90;99.90
13561;DHT22;6852;51.686;5.314;2023-02-02T14:37:46;8.80;99.90
13561;DHT22;6852;51.686;5.314;2023-02-02T14:48:26;8.60;99.90
13561;DHT22;6852;51.686;5.314;2023-02-02T14:50:58;8.70;99.90
13561;DHT22;6852;51.686;5.314;2023-02-02T14:53:35;8.60;99.90
13561;DHT22;6852;51.686;5.314;2023-02-02T14:58:39;8.70;99.90
13561;DHT22;6852;51.686;5.314;2023-02-02T15:06:32;8.70;99.90
13561;DHT22;6852;51.686;5.314;2023-02-02T15:14:54;8.60;99.90
13561;DHT22;6852;51.686;5.314;2023-02-02T15:33:38;8.70;99.90
13561;DHT22;6852;51.686;5.314;2023-02-02T15:36:26;8.70;99.90
13561;DHT22;6852;51.686;5.314;2023-02-02T15:38:57;8.70;99.90
13561;DHT22;6852;51.686;5.314;2023-02-02T15:41:36;8.70;99.90
13561;DHT22;6852;51.686;5.314;2023-02-02T15:44:17;8.70;99.90
13561;DHT22;6852;51.686;5.314;2023-02-02T15:46:44;8.50;99.90
13561;DHT22;6852;51.686;5.314;2023-02-02T15:52:17;8.70;99.90
13561;DHT22;6852;51.686;5.314;2023-02-02T15:54:57;8.80;99.90
13561;DHT22;6852;51.686;5.314;2023-02-02T15:57:32;8.60;99.90
13561;DHT22;6852;51.686;5.314;2023-02-02T16:00:53;8.60;99.90
13561;DHT22;6852;51.686;5.314;2023-02-02T16:02:51;8.70;99.90
13561;DHT22;6852;51.686;5.314;2023-02-02T16:05:24;8.60;99.90
13561;DHT22;6852;51.686;5.314;2023-02-02T16:07:51;8.60;99.90
13561;DHT22;6852;51.686;5.314;2023-02-02T16:10:32;8.60;99.90
13561;DHT22;6852;51.686;5.314;2023-02-02T16:12:59;8.60;99.90
13561;DHT22;6852;51.686;5.314;2023-02-02T16:15:28;8.50;99.90
13561;DHT22;6852;51.686;5.314;2023-02-02T16:18:02;8.50;99.90
13561;DHT22;6852;51.686;5.314;2023-02-02T16:20:33;8.50;99.90
13561;DHT22;6852;51.686;5.314;2023-02-02T16:23:03;8.60;99.90
13561;DHT22;6852;51.686;5.314;2023-02-02T16:25:33;8.50;99.90
13561;DHT22;6852;51.686;5.314;2023-02-02T16:28:02;8.60;99.90
13561;DHT22;6852;51.686;5.314;2023-02-02T16:30:32;8.60;99.90
13561;DHT22;6852;51.686;5.314;2023-02-02T16:35:53;8.50;99.90
13561;DHT22;6852;51.686;5.314;2023-02-02T16:38:28;8.50;99.90
13561;DHT22;6852;51.686;5.314;2023-02-02T16:43:35;8.60;99.90
13561;DHT22;6852;51.686;5.314;2023-02-02T16:46:12;8.60;99.90
13561;DHT22;6852;51.686;5.314;2023-02-02T16:51:26;8.60;99.90
13561;DHT22;6852;51.686;5.314;2023-02-02T16:53:59;8.60;99.90
13561;DHT22;6852;51.686;5.314;2023-02-02T16:56:39;8.60;99.90
13561;DHT22;6852;51.686;5.314;2023-02-02T17:01:43;8.60;99.90
13561;DHT22;6852;51.686;5.314;2023-02-02T17:06:47;8.60;99.90
13561;DHT22;6852;51.686;5.314;2023-02-02T17:12:00;8.60;99.90
13561;DHT22;6852;51.686;5.314;2023-02-02T17:14:31;8.60;99.90
13561;DHT22;6852;51.686;5.314;2023-02-02T17:17:01;8.60;99.90
13561;DHT22;6852;51.686;5.314;2023-02-02T17:19:31;8.60;99.90
13561;DHT22;6852;51.686;5.314;2023-02-02T17:22:00;8.60;99.90
13561;DHT22;6852;51.686;5.314;2023-02-02T17:24:28;8.60;99.90
13561;DHT22;6852;51.686;5.314;2023-02-02T17:26:55;8.70;99.90
13561;DHT22;6852;51.686;5.314;2023-02-02T17:29:22;8.70;99.90
13561;DHT22;6852;51.686;5.314;2023-02-02T17:31:49;8.70;99.90
13561;DHT22;6852;51.686;5.314;2023-02-02T17:34:17;8.70;99.90
13561;DHT22;6852;51.686;5.314;2023-02-02T17:36:44;8.70;99.90
13561;DHT22;6852;51.686;5.314;2023-02-02T17:39:11;8.70;99.90
13561;DHT22;6852;51.686;5.314;2023-02-02T17:41:38;8.70;99.90
13561;DHT22;6852;51.686;5.314;2023-02-02T17:44:05;8.70;99.90
13561;DHT22;6852;51.686;5.314;2023-02-02T17:46:34;8.80;99.90
13561;DHT22;6852;51.686;5.314;2023-02-02T17:49:05;8.70;99.90
13561;DHT22;6852;51.686;5.314;2023-02-02T17:51:32;8.80;99.90
13561;DHT22;6852;51.686;5.314;2023-02-02T17:54:13;8.80;99.90
13561;DHT22;6852;51.686;5.314;2023-02-02T17:56:41;8.80;99.90
13561;DHT22;6852;51.686;5.314;2023-02-02T17:59:09;8.80;99.90
13561;DHT22;6852;51.686;5.314;2023-02-02T18:01:38;8.80;99.90
13561;DHT22;6852;51.686;5.314;2023-02-02T18:04:09;8.80;99.90
13561;DHT22;6852;51.686;5.314;2023-02-02T18:06:37;8.80;99.90
13561;DHT22;6852;51.686;5.314;2023-02-02T18:09:04;8.80;99.90
13561;DHT22;6852;51.686;5.314;2023-02-02T18:11:31;8.80;99.90
13561;DHT22;6852;51.686;5.314;2023-02-02T18:13:58;8.90;99.90
13561;DHT22;6852;51.686;5.314;2023-02-02T18:16:24;8.80;99.90
13561;DHT22;6852;51.686;5.314;2023-02-02T18:18:51;8.80;99.90
13561;DHT22;6852;51.686;5.314;2023-02-02T18:21:19;8.80;99.90
13561;DHT22;6852;51.686;5.314;2023-02-02T18:23:47;8.80;99.90
13561;DHT22;6852;51.686;5.314;2023-02-02T18:26:17;8.80;99.90
13561;DHT22;6852;51.686;5.314;2023-02-02T18:28:45;8.80;99.90
13561;DHT22;6852;51.686;5.314;2023-02-02T18:31:17;8.90;99.90
13561;DHT22;6852;51.686;5.314;2023-02-02T18:33:46;8.90;99.90
13561;DHT22;6852;51.686;5.314;2023-02-02T18:36:15;8.90;99.90
13561;DHT22;6852;51.686;5.314;2023-02-02T18:38:43;8.90;99.90
13561;DHT22;6852;51.686;5.314;2023-02-02T18:41:14;9.00;99.90
13561;DHT22;6852;51.686;5.314;2023-02-02T18:43:42;9.00;99.90
13561;DHT22;6852;51.686;5.314;2023-02-02T18:46:12;9.00;99.90
13561;DHT22;6852;51.686;5.314;2023-02-02T18:48:40;9.00;99.90
13561;DHT22;6852;51.686;5.314;2023-02-02T18:51:11;9.10;99.90
13561;DHT22;6852;51.686;5.314;2023-02-02T18:53:42;9.10;99.90
13561;DHT22;6852;51.686;5.314;2023-02-02T18:56:10;9.00;99.90
13561;DHT22;6852;51.686;5.314;2023-02-02T18:58:38;9.00;99.90
13561;DHT22;6852;51.686;5.314;2023-02-02T19:01:10;9.10;99.90
13561;DHT22;6852;51.686;5.314;2023-02-02T19:03:37;9.10;99.90
13561;DHT22;6852;51.686;5.314;2023-02-02T19:06:05;9.10;99.90
13561;DHT22;6852;51.686;5.314;2023-02-02T19:08:51;9.00;99.90
13561;DHT22;6852;51.686;5.314;2023-02-02T19:11:20;9.10;99.90
13561;DHT22;6852;51.686;5.314;2023-02-02T19:13:48;9.10;99.90
13561;DHT22;6852;51.686;5.314;2023-02-02T19:18:49;9.10;99.90
13561;DHT22;6852;51.686;5.314;2023-02-02T19:21:16;9.20;99.90
13561;DHT22;6852;51.686;5.314;2023-02-02T19:23:43;9.20;99.90
13561;DHT22;6852;51.686;5.314;2023-02-02T19:26:24;9.20;99.90
13561;DHT22;6852;51.686;5.314;2023-02-02T19:28:53;9.20;99.90